createdAt,value
2018-12-20T00:00:30.911Z,15.2
2018-12-20T00:01:03.052Z,15.13
2018-12-20T00:01:35.268Z,15.18
2018-12-20T00:02:07.396Z,15.18
2018-12-20T00:02:39.495Z,15.15
2018-12-20T00:03:11.631Z,15.13
2018-12-20T00:03:43.875Z,15.2
2018-12-20T00:04:16.227Z,15.13
2018-12-20T00:04:48.454Z,15.12
2018-12-20T00:05:20.656Z,15.08
2018-12-20T00:05:52.979Z,15.12
2018-12-20T00:06:25.243Z,15.15
2018-12-20T00:06:57.549Z,15.12
2018-12-20T00:07:29.924Z,15.18
2018-12-20T00:08:02.165Z,15.07
2018-12-20T00:08:34.288Z,15.15
2018-12-20T00:09:06.522Z,15.12
2018-12-20T00:09:38.703Z,15.15
2018-12-20T00:10:10.918Z,15.18
2018-12-20T00:10:43.194Z,15.08
2018-12-20T00:11:15.410Z,15.12
2018-12-20T00:11:47.673Z,15.16
2018-12-20T00:12:19.839Z,15.19
2018-12-20T00:12:52.163Z,15.08
2018-12-20T00:13:24.421Z,15.12
2018-12-20T00:13:56.541Z,15.16
2018-12-20T00:14:30.025Z,15.16
2018-12-20T00:15:02.193Z,15.15
2018-12-20T00:15:34.438Z,15.13
2018-12-20T00:16:06.606Z,15.12
2018-12-20T00:16:38.806Z,15.18
2018-12-20T00:17:11.119Z,15.19
2018-12-20T00:17:43.324Z,15.2
2018-12-20T00:18:15.490Z,15.1
2018-12-20T00:18:47.782Z,15.13
2018-12-20T00:19:20.065Z,15.13
2018-12-20T00:19:52.200Z,15.13
2018-12-20T00:20:24.512Z,15.13
2018-12-20T00:20:56.589Z,15.19
2018-12-20T00:21:28.894Z,15.07
2018-12-20T00:22:01.050Z,15.15
2018-12-20T00:22:33.445Z,15.1
2018-12-20T00:23:05.689Z,15.15
2018-12-20T00:23:37.886Z,15.15
2018-12-20T00:24:10.077Z,15.12
2018-12-20T00:24:42.432Z,15.1
2018-12-20T00:25:14.735Z,15.07
2018-12-20T00:25:47.079Z,15.16
2018-12-20T00:26:19.108Z,15.2
2018-12-20T00:26:51.290Z,15.07
2018-12-20T00:27:23.598Z,15.07
2018-12-20T00:27:55.793Z,15.08
2018-12-20T00:28:28.182Z,15.13
2018-12-20T00:29:00.449Z,15.1
2018-12-20T00:29:32.674Z,15.19
2018-12-20T00:30:04.905Z,15.05
2018-12-20T00:30:37.210Z,15.13
2018-12-20T00:31:13.525Z,15.12
2018-12-20T00:31:45.753Z,15.12
2018-12-20T00:32:17.808Z,15.1
2018-12-20T00:32:50.110Z,15.12
2018-12-20T00:33:22.323Z,15.15
2018-12-20T00:33:54.501Z,15.16
2018-12-20T00:34:26.759Z,15.16
2018-12-20T00:34:59.215Z,15.07
2018-12-20T00:35:31.377Z,15.12
2018-12-20T00:36:03.547Z,15.15
2018-12-20T00:36:35.692Z,15.13
2018-12-20T00:37:07.948Z,15.12
2018-12-20T00:37:40.211Z,15.1
2018-12-20T00:38:12.561Z,15.07
2018-12-20T00:38:44.758Z,15.16
2018-12-20T00:39:17.101Z,15.08
2018-12-20T00:39:49.442Z,15.08
2018-12-20T00:40:21.775Z,15.08
2018-12-20T00:40:54.184Z,15.12
2018-12-20T00:41:26.291Z,15.1
2018-12-20T00:41:58.463Z,15.08
2018-12-20T00:42:30.694Z,15.07
2018-12-20T00:43:02.852Z,15.13
2018-12-20T00:43:34.989Z,15.04
2018-12-20T00:44:07.315Z,15.05
2018-12-20T00:44:39.410Z,15.08
2018-12-20T00:45:11.519Z,15.16
2018-12-20T00:45:43.658Z,15.1
2018-12-20T00:46:15.937Z,15.13
2018-12-20T00:46:48.214Z,15.05
2018-12-20T00:47:20.184Z,15.08
2018-12-20T00:47:52.288Z,15.1
2018-12-20T00:48:24.401Z,15.07
2018-12-20T00:48:56.923Z,15.02
2018-12-20T00:49:29.093Z,15.07
2018-12-20T00:50:01.461Z,15.02
2018-12-20T00:50:33.828Z,15.08
2018-12-20T00:51:06.160Z,15
2018-12-20T00:51:38.349Z,15
2018-12-20T00:52:10.461Z,15.08
2018-12-20T00:52:42.797Z,15.13
2018-12-20T00:53:14.931Z,15.07
2018-12-20T00:53:47.181Z,15.12
2018-12-20T00:54:19.456Z,15.05
2018-12-20T00:54:51.687Z,15.04
2018-12-20T00:55:23.947Z,15
2018-12-20T00:55:56.126Z,15.01
2018-12-20T00:56:28.509Z,14.95
2018-12-20T00:57:00.832Z,15.1
2018-12-20T00:57:33.310Z,15.01
2018-12-20T00:58:05.598Z,14.97
2018-12-20T00:58:37.865Z,14.95
2018-12-20T00:59:10.021Z,15.05
2018-12-20T00:59:42.444Z,15.04
2018-12-20T01:00:14.660Z,14.98
2018-12-20T01:00:47.028Z,15
2018-12-20T01:01:19.253Z,14.97
2018-12-20T01:01:51.424Z,15.01
2018-12-20T01:02:23.787Z,14.98
2018-12-20T01:02:55.893Z,14.97
2018-12-20T01:03:28.353Z,15.01
2018-12-20T01:04:00.711Z,14.97
2018-12-20T01:04:33.096Z,15
2018-12-20T01:05:05.420Z,15.04
2018-12-20T01:05:37.669Z,14.97
2018-12-20T01:06:09.857Z,15.02
2018-12-20T01:06:42.128Z,14.94
2018-12-20T01:07:14.263Z,15
2018-12-20T01:07:46.482Z,14.98
2018-12-20T01:08:18.777Z,15
2018-12-20T01:08:50.946Z,14.95
2018-12-20T01:09:23.128Z,14.97
2018-12-20T01:09:55.168Z,14.95
2018-12-20T01:10:27.487Z,14.95
2018-12-20T01:10:59.786Z,14.93
2018-12-20T01:11:31.938Z,14.98
2018-12-20T01:12:04.094Z,14.95
2018-12-20T01:12:36.271Z,14.94
2018-12-20T01:13:08.448Z,15
2018-12-20T01:13:40.608Z,14.97
2018-12-20T01:14:12.859Z,15.04
2018-12-20T01:14:45.400Z,15.01
2018-12-20T01:15:17.971Z,15.04
2018-12-20T01:15:50.306Z,14.94
2018-12-20T01:16:22.486Z,14.95
2018-12-20T01:16:54.817Z,15.04
2018-12-20T01:17:27.309Z,14.95
2018-12-20T01:17:59.499Z,15.01
2018-12-20T01:18:31.951Z,14.95
2018-12-20T01:19:04.541Z,14.9
2018-12-20T01:19:36.766Z,14.86
2018-12-20T01:20:08.918Z,15.01
2018-12-20T01:20:41.296Z,14.98
2018-12-20T01:21:13.724Z,14.94
2018-12-20T01:21:46.231Z,14.95
2018-12-20T01:22:18.638Z,14.98
2018-12-20T01:22:51.151Z,15
2018-12-20T01:23:23.373Z,14.94
2018-12-20T01:23:55.546Z,14.95
2018-12-20T01:24:27.911Z,14.97
2018-12-20T01:25:00.223Z,14.95
2018-12-20T01:25:32.597Z,14.93
2018-12-20T01:26:04.826Z,14.94
2018-12-20T01:26:36.980Z,15
2018-12-20T01:27:09.153Z,15.02
2018-12-20T01:27:41.360Z,14.95
2018-12-20T01:28:13.779Z,14.89
2018-12-20T01:28:46.033Z,14.93
2018-12-20T01:29:18.209Z,14.93
2018-12-20T01:29:50.379Z,14.9
2018-12-20T01:30:22.615Z,15
2018-12-20T01:30:54.970Z,14.93
2018-12-20T01:31:27.095Z,14.94
2018-12-20T01:31:59.264Z,14.97
2018-12-20T01:32:31.603Z,14.97
2018-12-20T01:33:04.072Z,14.9
2018-12-20T01:33:36.259Z,14.94
2018-12-20T01:34:08.550Z,15
2018-12-20T01:34:40.915Z,14.97
2018-12-20T01:35:13.023Z,15.01
2018-12-20T01:35:45.260Z,15.01
2018-12-20T01:36:17.406Z,14.95
2018-12-20T01:36:49.403Z,15.02
2018-12-20T01:37:21.606Z,14.93
2018-12-20T01:37:53.767Z,14.98
2018-12-20T01:38:26.170Z,14.94
2018-12-20T01:38:58.356Z,14.95
2018-12-20T01:39:30.520Z,14.97
2018-12-20T01:40:02.618Z,14.98
2018-12-20T01:40:34.820Z,14.98
2018-12-20T01:41:07.001Z,14.93
2018-12-20T01:41:39.292Z,15
2018-12-20T01:42:11.364Z,14.95
2018-12-20T01:42:43.672Z,14.9
2018-12-20T01:43:15.835Z,15.01
2018-12-20T01:43:47.840Z,14.93
2018-12-20T01:44:20.316Z,15.01
2018-12-20T01:44:53.543Z,14.97
2018-12-20T01:45:26.045Z,14.97
2018-12-20T01:45:58.176Z,15
2018-12-20T01:46:30.321Z,14.95
2018-12-20T01:47:02.603Z,14.87
2018-12-20T01:47:34.958Z,14.93
2018-12-20T01:48:07.224Z,15.01
2018-12-20T01:48:39.371Z,15.04
2018-12-20T01:49:11.493Z,15.01
2018-12-20T01:49:43.817Z,14.98
2018-12-20T01:50:16.164Z,14.94
2018-12-20T01:50:48.197Z,14.98
2018-12-20T01:51:20.437Z,14.94
2018-12-20T01:51:53.699Z,14.98
2018-12-20T01:52:26.139Z,14.95
2018-12-20T01:52:58.540Z,14.93
2018-12-20T01:53:30.633Z,14.95
2018-12-20T01:54:02.813Z,14.93
2018-12-20T01:54:35.089Z,14.97
2018-12-20T01:55:07.663Z,14.95
2018-12-20T01:55:39.944Z,14.94
2018-12-20T01:56:11.950Z,14.94
2018-12-20T01:56:43.976Z,14.97
2018-12-20T01:57:16.087Z,14.93
2018-12-20T01:57:48.350Z,15
2018-12-20T01:58:20.917Z,14.98
2018-12-20T01:58:53.155Z,14.95
2018-12-20T01:59:25.410Z,14.94
2018-12-20T01:59:57.660Z,15
2018-12-20T02:00:29.831Z,15.01
2018-12-20T02:01:01.843Z,14.9
2018-12-20T02:01:33.907Z,14.93
2018-12-20T02:02:05.965Z,15
2018-12-20T02:02:38.382Z,15
2018-12-20T02:03:10.536Z,15
2018-12-20T02:03:42.621Z,14.93
2018-12-20T02:04:14.641Z,14.97
2018-12-20T02:04:46.688Z,14.95
2018-12-20T02:05:18.658Z,14.94
2018-12-20T02:05:50.950Z,14.97
2018-12-20T02:06:22.975Z,15
2018-12-20T02:06:55.244Z,14.93
2018-12-20T02:07:27.415Z,14.93
2018-12-20T02:07:59.621Z,14.95
2018-12-20T02:08:31.746Z,15.02
2018-12-20T02:09:03.847Z,14.9
2018-12-20T02:09:35.941Z,15
2018-12-20T02:10:07.974Z,14.94
2018-12-20T02:10:40.069Z,14.95
2018-12-20T02:11:12.148Z,14.95
2018-12-20T02:11:44.636Z,14.93
2018-12-20T02:12:16.823Z,14.98
2018-12-20T02:12:49.019Z,15.02
2018-12-20T02:13:21.224Z,15
2018-12-20T02:13:53.409Z,15
2018-12-20T02:14:25.623Z,14.95
2018-12-20T02:15:01.518Z,14.97
2018-12-20T02:15:34.183Z,15.04
2018-12-20T02:16:06.312Z,15.04
2018-12-20T02:16:38.308Z,14.95
2018-12-20T02:17:10.461Z,14.94
2018-12-20T02:17:42.750Z,14.94
2018-12-20T02:18:14.991Z,15.01
2018-12-20T02:18:47.446Z,14.94
2018-12-20T02:19:19.721Z,14.97
2018-12-20T02:19:51.759Z,15.01
2018-12-20T02:20:24.069Z,15.08
2018-12-20T02:20:56.058Z,15.04
2018-12-20T02:21:28.387Z,14.97
2018-12-20T02:22:00.640Z,14.94
2018-12-20T02:22:32.890Z,15.04
2018-12-20T02:23:05.091Z,15.08
2018-12-20T02:23:37.137Z,14.97
2018-12-20T02:24:09.138Z,15.04
2018-12-20T02:24:41.393Z,14.98
2018-12-20T02:25:13.430Z,14.98
2018-12-20T02:25:45.697Z,15
2018-12-20T02:26:17.847Z,15
2018-12-20T02:26:49.911Z,15.04
2018-12-20T02:27:22.060Z,15.08
2018-12-20T02:27:54.131Z,14.98
2018-12-20T02:28:26.149Z,15
2018-12-20T02:28:58.130Z,14.97
2018-12-20T02:29:30.185Z,14.98
2018-12-20T02:30:02.478Z,15.05
2018-12-20T02:30:34.507Z,14.98
2018-12-20T02:31:06.724Z,15.05
2018-12-20T02:31:38.797Z,15.08
2018-12-20T02:32:11.119Z,15.08
2018-12-20T02:32:43.412Z,14.97
2018-12-20T02:33:15.664Z,15.04
2018-12-20T02:33:48.031Z,15.12
2018-12-20T02:34:20.139Z,15.07
2018-12-20T02:34:52.598Z,14.97
2018-12-20T02:35:24.756Z,14.95
2018-12-20T02:35:56.855Z,15.01
2018-12-20T02:36:28.999Z,14.94
2018-12-20T02:37:01.807Z,15
2018-12-20T02:37:34.109Z,15
2018-12-20T02:38:06.219Z,15.1
2018-12-20T02:38:38.732Z,15.05
2018-12-20T02:39:10.755Z,15.05
2018-12-20T02:39:43.063Z,15
2018-12-20T02:40:15.272Z,15.1
2018-12-20T02:40:47.477Z,15.1
2018-12-20T02:41:19.493Z,15.12
2018-12-20T02:41:51.871Z,15.04
2018-12-20T02:42:24.020Z,15.02
2018-12-20T02:42:56.074Z,15.08
2018-12-20T02:43:28.424Z,15.02
2018-12-20T02:44:00.672Z,15
2018-12-20T02:44:33.030Z,15.08
2018-12-20T02:45:10.598Z,14.97
2018-12-20T02:45:43.066Z,14.97
2018-12-20T02:46:15.230Z,15.05
2018-12-20T02:46:47.522Z,15.08
2018-12-20T02:47:19.786Z,15.1
2018-12-20T02:47:52.020Z,15.05
2018-12-20T02:48:24.269Z,15.07
2018-12-20T02:48:56.468Z,15
2018-12-20T02:49:28.822Z,15.1
2018-12-20T02:50:01.267Z,15.07
2018-12-20T02:50:33.659Z,15.08
2018-12-20T02:51:05.717Z,15.05
2018-12-20T02:51:38.189Z,15.01
2018-12-20T02:52:10.311Z,15.05
2018-12-20T02:52:42.515Z,15.12
2018-12-20T02:53:14.725Z,14.98
2018-12-20T02:53:47.296Z,15.08
2018-12-20T02:54:19.360Z,15.12
2018-12-20T02:54:51.657Z,15.05
2018-12-20T02:55:23.882Z,15.07
2018-12-20T02:55:56.411Z,15.07
2018-12-20T02:56:28.636Z,14.97
2018-12-20T02:57:01.033Z,15.05
2018-12-20T02:57:33.250Z,14.98
2018-12-20T02:58:05.475Z,14.98
2018-12-20T02:58:37.751Z,15.05
2018-12-20T02:59:09.975Z,15.01
2018-12-20T02:59:41.962Z,15.01
2018-12-20T03:00:14.036Z,15.07
2018-12-20T03:00:46.360Z,15.05
2018-12-20T03:01:18.363Z,15.04
2018-12-20T03:01:50.347Z,15.07
2018-12-20T03:02:22.833Z,15.1
2018-12-20T03:02:54.974Z,15.04
2018-12-20T03:03:26.959Z,15.07
2018-12-20T03:03:59.072Z,15.05
2018-12-20T03:04:31.122Z,15.07
2018-12-20T03:05:03.522Z,14.98
2018-12-20T03:05:35.882Z,15.07
2018-12-20T03:06:08.196Z,15
2018-12-20T03:06:40.580Z,15.04
2018-12-20T03:07:12.716Z,15.08
2018-12-20T03:07:45.105Z,15
2018-12-20T03:08:17.444Z,15.07
2018-12-20T03:08:49.476Z,15.05
2018-12-20T03:09:21.458Z,14.98
2018-12-20T03:09:53.678Z,15
2018-12-20T03:10:26.064Z,15.08
2018-12-20T03:10:58.366Z,15.04
2018-12-20T03:11:30.799Z,15.08
2018-12-20T03:12:03.302Z,14.98
2018-12-20T03:12:35.489Z,15.04
2018-12-20T03:13:07.924Z,15.07
2018-12-20T03:13:40.198Z,15.07
2018-12-20T03:14:12.684Z,15.04
2018-12-20T03:14:44.737Z,15.08
2018-12-20T03:15:20.012Z,14.98
2018-12-20T03:15:52.949Z,14.98
2018-12-20T03:16:25.013Z,15.04
2018-12-20T03:16:57.561Z,15.01
2018-12-20T03:17:29.980Z,14.97
2018-12-20T03:18:02.322Z,15
2018-12-20T03:18:34.500Z,15.01
2018-12-20T03:19:06.669Z,14.97
2018-12-20T03:19:38.754Z,15.01
2018-12-20T03:20:10.978Z,15.12
2018-12-20T03:20:43.430Z,15
2018-12-20T03:21:15.712Z,15.08
2018-12-20T03:21:48.054Z,14.98
2018-12-20T03:22:20.242Z,15.05
2018-12-20T03:22:52.600Z,15.08
2018-12-20T03:23:25.249Z,14.95
2018-12-20T03:23:57.983Z,15.08
2018-12-20T03:24:30.334Z,15
2018-12-20T03:25:02.661Z,15
2018-12-20T03:25:34.755Z,15.01
2018-12-20T03:26:06.988Z,15.08
2018-12-20T03:26:39.299Z,15.05
2018-12-20T03:27:11.480Z,15.08
2018-12-20T03:27:43.985Z,15.08
2018-12-20T03:28:16.066Z,15.01
2018-12-20T03:28:48.289Z,14.95
2018-12-20T03:29:20.762Z,14.94
2018-12-20T03:29:53.123Z,14.95
2018-12-20T03:30:25.606Z,15
2018-12-20T03:30:58.902Z,14.97
2018-12-20T03:31:32.007Z,14.97
2018-12-20T03:32:04.835Z,14.97
2018-12-20T03:32:37.157Z,14.94
2018-12-20T03:33:11.057Z,15.02
2018-12-20T03:33:43.101Z,14.93
2018-12-20T03:34:16.292Z,15.01
2018-12-20T03:34:48.441Z,14.98
2018-12-20T03:35:20.757Z,14.94
2018-12-20T03:35:52.929Z,15.04
2018-12-20T03:36:25.369Z,15
2018-12-20T03:36:57.453Z,14.97
2018-12-20T03:37:29.791Z,15.01
2018-12-20T03:38:02.165Z,15
2018-12-20T03:38:34.651Z,15.01
2018-12-20T03:39:06.973Z,14.94
2018-12-20T03:39:39.152Z,14.95
2018-12-20T03:40:11.365Z,14.9
2018-12-20T03:40:43.625Z,14.93
2018-12-20T03:41:15.981Z,14.93
2018-12-20T03:41:48.283Z,15
2018-12-20T03:42:20.710Z,14.95
2018-12-20T03:42:52.983Z,15.05
2018-12-20T03:43:25.584Z,14.87
2018-12-20T03:43:57.864Z,14.97
2018-12-20T03:44:29.996Z,15.05
2018-12-20T03:45:02.102Z,14.95
2018-12-20T03:45:34.601Z,15.01
2018-12-20T03:46:06.781Z,15
2018-12-20T03:46:38.936Z,15.04
2018-12-20T03:47:10.952Z,15.04
2018-12-20T03:47:43.258Z,14.97
2018-12-20T03:48:15.717Z,14.95
2018-12-20T03:48:47.893Z,14.94
2018-12-20T03:49:20.255Z,14.97
2018-12-20T03:49:52.483Z,14.93
2018-12-20T03:50:24.709Z,15.01
2018-12-20T03:50:56.916Z,15
2018-12-20T03:51:29.618Z,15.04
2018-12-20T03:52:01.785Z,14.94
2018-12-20T03:52:34.047Z,14.97
2018-12-20T03:53:06.652Z,15.04
2018-12-20T03:53:38.972Z,15.02
2018-12-20T03:54:11.194Z,15.02
2018-12-20T03:54:43.577Z,14.9
2018-12-20T03:55:15.960Z,15
2018-12-20T03:55:48.247Z,15.02
2018-12-20T03:56:21.128Z,14.97
2018-12-20T03:56:53.612Z,15.01
2018-12-20T03:57:26.140Z,15
2018-12-20T03:57:58.615Z,14.9
2018-12-20T03:58:30.703Z,15.02
2018-12-20T03:59:02.767Z,14.97
2018-12-20T03:59:35.139Z,14.89
2018-12-20T04:00:07.440Z,14.94
2018-12-20T04:00:39.694Z,14.98
2018-12-20T04:01:11.679Z,14.93
2018-12-20T04:01:43.647Z,14.83
2018-12-20T04:02:15.634Z,14.93
2018-12-20T04:02:47.833Z,14.94
2018-12-20T04:03:20.301Z,14.93
2018-12-20T04:03:52.530Z,14.93
2018-12-20T04:04:24.688Z,14.98
2018-12-20T04:04:57.133Z,14.83
2018-12-20T04:05:29.554Z,15.01
2018-12-20T04:06:01.944Z,15
2018-12-20T04:06:34.967Z,14.97
2018-12-20T04:07:07.109Z,15
2018-12-20T04:07:39.262Z,14.97
2018-12-20T04:08:11.578Z,14.98
2018-12-20T04:08:43.744Z,14.95
2018-12-20T04:09:15.724Z,14.93
2018-12-20T04:09:47.882Z,15
2018-12-20T04:10:20.116Z,14.97
2018-12-20T04:10:52.809Z,15.01
2018-12-20T04:11:24.893Z,14.95
2018-12-20T04:11:57.349Z,14.89
2018-12-20T04:12:29.841Z,14.86
2018-12-20T04:13:02.250Z,14.97
2018-12-20T04:13:34.397Z,14.86
2018-12-20T04:14:06.637Z,14.94
2018-12-20T04:14:38.944Z,14.85
2018-12-20T04:15:11.253Z,14.87
2018-12-20T04:15:43.246Z,14.94
2018-12-20T04:16:15.558Z,14.86
2018-12-20T04:16:48.051Z,14.93
2018-12-20T04:17:20.857Z,14.85
2018-12-20T04:17:52.974Z,14.9
2018-12-20T04:18:25.253Z,14.97
2018-12-20T04:18:57.736Z,14.94
2018-12-20T04:19:30.301Z,14.85
2018-12-20T04:20:02.575Z,14.83
2018-12-20T04:20:34.744Z,14.87
2018-12-20T04:21:06.945Z,14.89
2018-12-20T04:21:39.309Z,14.8
2018-12-20T04:22:11.986Z,14.86
2018-12-20T04:22:44.085Z,14.97
2018-12-20T04:23:16.302Z,14.95
2018-12-20T04:23:49.202Z,14.9
2018-12-20T04:24:22.288Z,14.82
2018-12-20T04:24:54.386Z,14.9
2018-12-20T04:25:26.822Z,14.87
2018-12-20T04:25:59.458Z,14.94
2018-12-20T04:26:31.691Z,14.9
2018-12-20T04:27:04.081Z,14.93
2018-12-20T04:27:36.280Z,14.83
2018-12-20T04:28:08.695Z,14.86
2018-12-20T04:28:40.925Z,15
2018-12-20T04:29:12.896Z,14.94
2018-12-20T04:29:45.370Z,14.89
2018-12-20T04:30:17.541Z,14.9
2018-12-20T04:30:49.880Z,14.9
2018-12-20T04:31:22.285Z,14.9
2018-12-20T04:31:54.661Z,14.89
2018-12-20T04:32:26.749Z,14.8
2018-12-20T04:32:59.390Z,14.89
2018-12-20T04:33:31.828Z,14.9
2018-12-20T04:34:03.882Z,14.85
2018-12-20T04:34:36.652Z,14.9
2018-12-20T04:35:09.094Z,14.79
2018-12-20T04:35:41.175Z,14.83
2018-12-20T04:36:14.200Z,14.94
2018-12-20T04:36:46.762Z,14.83
2018-12-20T04:37:18.997Z,14.93
2018-12-20T04:37:51.911Z,14.82
2018-12-20T04:38:24.102Z,14.86
2018-12-20T04:38:56.282Z,14.87
2018-12-20T04:39:28.809Z,14.79
2018-12-20T04:40:00.914Z,14.83
2018-12-20T04:40:33.712Z,14.8
2018-12-20T04:41:06.148Z,14.93
2018-12-20T04:41:38.455Z,14.89
2018-12-20T04:42:10.459Z,14.83
2018-12-20T04:42:42.549Z,14.87
2018-12-20T04:43:14.711Z,14.9
2018-12-20T04:43:46.973Z,14.94
2018-12-20T04:44:19.263Z,14.97
2018-12-20T04:44:51.622Z,14.9
2018-12-20T04:45:23.929Z,14.9
2018-12-20T04:45:56.282Z,14.87
2018-12-20T04:46:28.792Z,14.83
2018-12-20T04:47:00.876Z,14.8
2018-12-20T04:47:33.309Z,14.87
2018-12-20T04:48:05.745Z,14.83
2018-12-20T04:48:38.038Z,14.83
2018-12-20T04:49:10.342Z,14.89
2018-12-20T04:49:42.874Z,14.98
2018-12-20T04:50:15.149Z,14.83
2018-12-20T04:50:47.326Z,14.93
2018-12-20T04:51:19.823Z,14.9
2018-12-20T04:51:52.322Z,14.85
2018-12-20T04:52:24.616Z,14.89
2018-12-20T04:52:56.849Z,14.94
2018-12-20T04:53:29.209Z,14.89
2018-12-20T04:54:01.781Z,14.82
2018-12-20T04:54:34.124Z,15
2018-12-20T04:55:06.360Z,14.93
2018-12-20T04:55:38.616Z,14.94
2018-12-20T04:56:10.728Z,14.87
2018-12-20T04:56:43.102Z,14.82
2018-12-20T04:57:15.309Z,14.97
2018-12-20T04:57:47.538Z,14.9
2018-12-20T04:58:19.513Z,14.87
2018-12-20T04:58:51.781Z,14.87
2018-12-20T04:59:24.332Z,14.85
2018-12-20T04:59:56.865Z,14.87
2018-12-20T05:00:28.975Z,14.86
2018-12-20T05:01:00.982Z,14.85
2018-12-20T05:01:33.719Z,14.94
2018-12-20T05:02:06.240Z,14.94
2018-12-20T05:02:38.458Z,14.89
2018-12-20T05:03:10.959Z,14.79
2018-12-20T05:03:43.504Z,14.8
2018-12-20T05:04:15.759Z,14.83
2018-12-20T05:04:48.037Z,14.89
2018-12-20T05:05:20.331Z,14.89
2018-12-20T05:05:52.801Z,14.86
2018-12-20T05:06:25.349Z,14.89
2018-12-20T05:06:57.371Z,14.94
2018-12-20T05:07:29.836Z,14.79
2018-12-20T05:08:02.274Z,14.93
2018-12-20T05:08:34.767Z,14.94
2018-12-20T05:09:07.601Z,14.97
2018-12-20T05:09:39.982Z,14.93
2018-12-20T05:10:11.949Z,14.86
2018-12-20T05:10:44.286Z,14.95
2018-12-20T05:11:16.810Z,14.87
2018-12-20T05:11:49.549Z,14.86
2018-12-20T05:12:22.257Z,14.9
2018-12-20T05:12:54.914Z,14.9
2018-12-20T05:13:26.982Z,14.89
2018-12-20T05:13:59.627Z,14.98
2018-12-20T05:14:32.095Z,14.85
2018-12-20T05:15:04.476Z,14.97
2018-12-20T05:15:36.619Z,14.9
2018-12-20T05:16:08.731Z,15
2018-12-20T05:16:41.398Z,15
2018-12-20T05:17:13.712Z,14.85
2018-12-20T05:17:46.012Z,14.82
2018-12-20T05:18:18.434Z,14.9
2018-12-20T05:18:50.417Z,14.89
2018-12-20T05:19:22.696Z,14.87
2018-12-20T05:19:55.077Z,15.01
2018-12-20T05:20:27.399Z,14.97
2018-12-20T05:20:59.892Z,15
2018-12-20T05:21:32.382Z,15
2018-12-20T05:22:04.624Z,14.95
2018-12-20T05:22:36.958Z,14.89
2018-12-20T05:23:09.447Z,14.93
2018-12-20T05:23:41.898Z,14.87
2018-12-20T05:24:14.258Z,14.94
2018-12-20T05:24:46.421Z,14.94
2018-12-20T05:25:18.516Z,14.95
2018-12-20T05:25:51.115Z,15
2018-12-20T05:26:23.433Z,14.93
2018-12-20T05:26:55.899Z,14.89
2018-12-20T05:27:28.211Z,14.98
2018-12-20T05:28:00.382Z,15
2018-12-20T05:28:32.344Z,15.01
2018-12-20T05:29:04.687Z,15
2018-12-20T05:29:36.895Z,14.9
2018-12-20T05:30:09.153Z,14.97
2018-12-20T05:30:41.631Z,14.86
2018-12-20T05:31:13.938Z,14.95
2018-12-20T05:31:45.916Z,14.95
2018-12-20T05:32:17.875Z,14.98
2018-12-20T05:32:50.452Z,14.93
2018-12-20T05:33:22.544Z,14.86
2018-12-20T05:33:54.933Z,14.9
2018-12-20T05:34:27.471Z,14.98
2018-12-20T05:35:00.107Z,14.94
2018-12-20T05:35:32.699Z,14.98
2018-12-20T05:36:04.827Z,14.98
2018-12-20T05:36:36.967Z,14.94
2018-12-20T05:37:09.248Z,14.97
2018-12-20T05:37:41.692Z,15.01
2018-12-20T05:38:13.864Z,14.93
2018-12-20T05:38:46.068Z,14.93
2018-12-20T05:39:18.350Z,15.01
2018-12-20T05:39:50.870Z,14.98
2018-12-20T05:40:23.216Z,14.97
2018-12-20T05:40:55.639Z,14.94
2018-12-20T05:41:28.137Z,14.98
2018-12-20T05:42:00.561Z,15.02
2018-12-20T05:42:32.936Z,14.9
2018-12-20T05:43:05.678Z,14.95
2018-12-20T05:43:38.417Z,14.98
2018-12-20T05:44:10.892Z,14.93
2018-12-20T05:44:43.487Z,14.98
2018-12-20T05:45:19.429Z,15.02
2018-12-20T05:45:51.804Z,14.93
2018-12-20T05:46:24.111Z,15
2018-12-20T05:46:56.473Z,14.93
2018-12-20T05:47:28.756Z,14.97
2018-12-20T05:48:01.129Z,15
2018-12-20T05:48:33.557Z,15.02
2018-12-20T05:49:05.776Z,15
2018-12-20T05:49:38.013Z,14.94
2018-12-20T05:50:10.257Z,14.93
2018-12-20T05:50:42.555Z,14.95
2018-12-20T05:51:14.824Z,14.93
2018-12-20T05:51:47.205Z,14.97
2018-12-20T05:52:19.515Z,14.95
2018-12-20T05:52:51.997Z,14.97
2018-12-20T05:53:24.029Z,14.94
2018-12-20T05:53:56.278Z,15.04
2018-12-20T05:54:28.482Z,14.89
2018-12-20T05:55:00.744Z,14.97
2018-12-20T05:55:33.286Z,15.01
2018-12-20T05:56:05.253Z,15.04
2018-12-20T05:56:37.236Z,15.04
2018-12-20T05:57:09.428Z,14.95
2018-12-20T05:57:41.903Z,14.95
2018-12-20T05:58:14.226Z,14.97
2018-12-20T05:58:46.487Z,14.98
2018-12-20T05:59:18.560Z,15.01
2018-12-20T05:59:50.750Z,14.94
2018-12-20T06:00:22.870Z,14.94
2018-12-20T06:00:55.176Z,15.04
2018-12-20T06:01:27.265Z,14.93
2018-12-20T06:01:59.558Z,15.01
2018-12-20T06:02:31.869Z,15.01
2018-12-20T06:03:04.029Z,14.97
2018-12-20T06:03:36.332Z,15
2018-12-20T06:04:08.576Z,15.01
2018-12-20T06:04:42.800Z,15.01
2018-12-20T06:05:14.997Z,14.94
2018-12-20T06:05:47.323Z,14.98
2018-12-20T06:06:19.509Z,14.97
2018-12-20T06:06:51.841Z,15.01
2018-12-20T06:07:24.187Z,15.01
2018-12-20T06:07:56.533Z,14.98
2018-12-20T06:08:28.614Z,14.94
2018-12-20T06:09:00.863Z,14.97
2018-12-20T06:09:33.239Z,15.02
2018-12-20T06:10:05.514Z,14.95
2018-12-20T06:10:37.743Z,14.97
2018-12-20T06:11:10.001Z,15
2018-12-20T06:11:42.179Z,14.94
2018-12-20T06:12:14.725Z,15
2018-12-20T06:12:47.112Z,15
2018-12-20T06:13:19.265Z,15.02
2018-12-20T06:13:51.623Z,14.98
2018-12-20T06:14:26.509Z,15.07
2018-12-20T06:14:58.858Z,15.02
2018-12-20T06:15:30.911Z,14.95
2018-12-20T06:16:03.031Z,14.98
2018-12-20T06:16:44.158Z,14.95
2018-12-20T06:17:16.302Z,15
2018-12-20T06:17:48.575Z,15.08
2018-12-20T06:18:20.937Z,14.98
2018-12-20T06:18:53.237Z,15.13
2018-12-20T06:19:25.395Z,15.04
2018-12-20T06:19:57.989Z,14.98
2018-12-20T06:20:30.388Z,15.02
2018-12-20T06:21:02.559Z,15.08
2018-12-20T06:21:34.916Z,15.08
2018-12-20T06:22:06.938Z,15
2018-12-20T06:22:39.166Z,14.98
2018-12-20T06:23:11.160Z,15.07
2018-12-20T06:23:43.403Z,15
2018-12-20T06:24:15.369Z,15.08
2018-12-20T06:24:47.345Z,14.95
2018-12-20T06:25:21.268Z,14.97
2018-12-20T06:25:53.498Z,15
2018-12-20T06:26:25.474Z,14.95
2018-12-20T06:26:57.467Z,15
2018-12-20T06:27:29.448Z,15.1
2018-12-20T06:28:01.419Z,14.97
2018-12-20T06:28:33.390Z,15.02
2018-12-20T06:29:05.366Z,15.02
2018-12-20T06:29:37.352Z,15.1
2018-12-20T06:30:09.323Z,15.1
2018-12-20T06:30:41.305Z,15.1
2018-12-20T06:31:13.819Z,15.12
2018-12-20T06:31:45.791Z,15.05
2018-12-20T06:32:17.802Z,15.02
2018-12-20T06:32:49.793Z,15.1
2018-12-20T06:33:21.766Z,15.12
2018-12-20T06:33:53.752Z,15.1
2018-12-20T06:34:25.743Z,15.05
2018-12-20T06:34:57.767Z,15.07
2018-12-20T06:35:29.733Z,15.07
2018-12-20T06:36:01.739Z,15.07
2018-12-20T06:36:33.714Z,15.08
2018-12-20T06:37:05.701Z,15.12
2018-12-20T06:37:37.685Z,15.12
2018-12-20T06:38:09.660Z,15.05
2018-12-20T06:38:41.656Z,15.12
2018-12-20T06:39:13.640Z,15.12
2018-12-20T06:39:45.602Z,15.07
2018-12-20T06:40:17.584Z,15.15
2018-12-20T06:40:49.611Z,15.1
2018-12-20T06:41:21.584Z,15.15
2018-12-20T06:41:53.550Z,15.02
2018-12-20T06:42:25.519Z,15.13
2018-12-20T06:42:57.486Z,15.08
2018-12-20T06:43:29.460Z,15.1
2018-12-20T06:44:07.057Z,15.13
2018-12-20T06:44:39.256Z,15.07
2018-12-20T06:45:11.238Z,15.13
2018-12-20T06:45:43.311Z,15.08
2018-12-20T06:46:20.999Z,15.07
2018-12-20T06:46:53.443Z,15.1
2018-12-20T06:47:25.584Z,15.05
2018-12-20T06:47:57.850Z,15.15
2018-12-20T06:48:29.815Z,15.18
2018-12-20T06:49:01.813Z,15.07
2018-12-20T06:49:33.779Z,15.02
2018-12-20T06:50:05.755Z,15.13
2018-12-20T06:50:37.777Z,15.1
2018-12-20T06:51:09.765Z,15.15
2018-12-20T06:51:41.730Z,15.13
2018-12-20T06:52:13.731Z,15.02
2018-12-20T06:52:45.797Z,15.12
2018-12-20T06:53:17.800Z,15.1
2018-12-20T06:53:49.781Z,15.12
2018-12-20T06:54:21.758Z,15.08
2018-12-20T06:54:53.742Z,15.12
2018-12-20T06:55:25.718Z,15.1
2018-12-20T06:55:57.696Z,15.18
2018-12-20T06:56:29.733Z,15.12
2018-12-20T06:57:01.707Z,15.1
2018-12-20T06:57:33.670Z,15.08
2018-12-20T06:58:05.633Z,15.12
2018-12-20T06:58:37.602Z,15.15
2018-12-20T06:59:09.569Z,15.15
2018-12-20T06:59:41.543Z,15.15
2018-12-20T07:00:13.543Z,15.13
2018-12-20T07:00:45.518Z,15.1
2018-12-20T07:01:17.474Z,15.2